createdAt,value
2018-12-31T00:01:49.984Z,16.80
2018-12-31T00:04:18.553Z,16.30
2018-12-31T00:06:47.169Z,16.60
2018-12-31T00:09:15.810Z,17.50
2018-12-31T00:11:44.371Z,17.90
2018-12-31T00:14:13.051Z,18.10
2018-12-31T00:16:41.685Z,17.50
2018-12-31T00:19:10.197Z,18.00
2018-12-31T00:21:38.803Z,18.40
2018-12-31T00:24:07.369Z,18.50
2018-12-31T00:26:35.940Z,17.90
2018-12-31T00:29:04.543Z,17.90
2018-12-31T00:31:33.043Z,18.70
2018-12-31T00:34:01.607Z,19.50
2018-12-31T00:36:30.217Z,19.20
2018-12-31T00:38:58.788Z,18.90
2018-12-31T00:41:27.293Z,18.50
2018-12-31T00:43:55.847Z,18.70
2018-12-31T00:46:24.476Z,18.90
2018-12-31T00:48:53.048Z,18.10
2018-12-31T00:51:22.056Z,18.60
2018-12-31T00:53:50.615Z,18.10
2018-12-31T00:56:19.260Z,17.90
2018-12-31T00:58:47.928Z,18.30
2018-12-31T01:01:16.992Z,17.90
2018-12-31T01:03:45.545Z,18.10
2018-12-31T01:06:14.231Z,18.30
2018-12-31T01:08:42.870Z,17.90
2018-12-31T01:11:11.429Z,18.40
2018-12-31T01:13:40.037Z,18.90
2018-12-31T01:16:08.683Z,18.90
2018-12-31T01:18:38.350Z,18.60
2018-12-31T01:21:06.906Z,19.10
2018-12-31T01:23:35.541Z,19.10
2018-12-31T01:26:04.105Z,19.10
2018-12-31T01:28:33.072Z,18.90
2018-12-31T01:31:01.705Z,18.70
2018-12-31T01:33:30.278Z,18.60
2018-12-31T01:35:58.992Z,18.60
2018-12-31T01:38:27.553Z,18.80
2018-12-31T01:40:56.194Z,18.40
2018-12-31T01:43:24.871Z,19.00
2018-12-31T01:45:53.505Z,18.30
2018-12-31T01:48:22.071Z,18.80
2018-12-31T01:50:50.743Z,18.70
2018-12-31T01:53:19.378Z,18.90
2018-12-31T01:55:47.933Z,18.90
2018-12-31T01:58:16.616Z,19.10
2018-12-31T02:00:45.266Z,19.10
2018-12-31T02:03:13.903Z,19.40
2018-12-31T02:05:42.575Z,19.10
2018-12-31T02:08:11.142Z,18.70
2018-12-31T02:10:39.719Z,17.80
2018-12-31T02:13:11.140Z,18.10
2018-12-31T02:15:39.824Z,18.20
2018-12-31T02:18:08.414Z,18.00
2018-12-31T02:20:37.378Z,18.30
2018-12-31T02:23:06.007Z,17.90
2018-12-31T02:25:34.577Z,18.10
2018-12-31T02:28:03.255Z,17.80
2018-12-31T02:30:31.884Z,17.80
2018-12-31T02:33:00.527Z,18.30
2018-12-31T02:35:29.450Z,19.00
2018-12-31T02:37:58.076Z,18.20
2018-12-31T02:40:26.635Z,17.70
2018-12-31T02:42:55.246Z,18.10
2018-12-31T02:45:23.883Z,17.30
2018-12-31T02:47:52.388Z,17.00
2018-12-31T02:50:21.065Z,16.40
2018-12-31T02:52:49.700Z,16.30
2018-12-31T02:55:18.328Z,16.70
2018-12-31T02:57:46.938Z,17.20
2018-12-31T03:00:15.776Z,18.00
2018-12-31T03:02:44.350Z,17.80
2018-12-31T03:05:13.042Z,17.40
2018-12-31T03:07:41.681Z,16.30
2018-12-31T03:10:10.273Z,16.60
2018-12-31T03:12:38.946Z,16.70
2018-12-31T03:15:07.592Z,16.60
2018-12-31T03:17:36.216Z,16.70
2018-12-31T03:20:04.944Z,16.70
2018-12-31T03:22:33.586Z,16.60
2018-12-31T03:25:02.085Z,16.90
2018-12-31T03:27:30.765Z,17.50
2018-12-31T03:29:59.392Z,16.80
2018-12-31T03:32:28.359Z,16.50
2018-12-31T03:34:56.929Z,16.80
2018-12-31T03:37:25.498Z,17.20
2018-12-31T03:39:54.063Z,17.50
2018-12-31T03:42:22.951Z,17.90
2018-12-31T03:44:51.509Z,18.00
2018-12-31T03:47:20.076Z,18.20
2018-12-31T03:49:48.754Z,18.40
2018-12-31T03:52:17.248Z,17.90
2018-12-31T03:54:45.905Z,17.70
2018-12-31T03:57:14.521Z,16.50
2018-12-31T03:59:43.009Z,16.10
2018-12-31T04:02:11.596Z,16.50
2018-12-31T04:04:40.569Z,17.60
2018-12-31T04:07:09.137Z,18.10
2018-12-31T04:09:37.636Z,18.10
2018-12-31T04:12:06.242Z,17.10
2018-12-31T04:14:34.733Z,17.10
2018-12-31T04:17:03.790Z,17.30
2018-12-31T04:19:32.630Z,17.20
2018-12-31T04:22:01.141Z,17.70
2018-12-31T04:24:30.062Z,18.20
2018-12-31T04:26:58.695Z,18.10
2018-12-31T04:29:27.179Z,18.80
2018-12-31T04:31:55.671Z,19.10
2018-12-31T04:34:24.213Z,19.40
2018-12-31T04:36:52.698Z,19.50
2018-12-31T04:39:21.272Z,19.30
2018-12-31T04:41:49.885Z,18.80
2018-12-31T04:44:18.453Z,19.20
2018-12-31T04:46:46.961Z,19.60
2018-12-31T04:49:15.569Z,19.40
2018-12-31T04:51:44.130Z,18.90
2018-12-31T04:54:12.699Z,19.00
2018-12-31T04:56:41.703Z,18.60
2018-12-31T04:59:10.207Z,17.80
2018-12-31T05:01:38.768Z,16.70
2018-12-31T05:04:07.372Z,16.70
2018-12-31T05:06:35.939Z,16.90
2018-12-31T05:09:05.883Z,17.00
2018-12-31T05:11:34.499Z,17.50
2018-12-31T05:14:03.139Z,18.40
2018-12-31T05:16:31.710Z,18.60
2018-12-31T05:19:00.359Z,19.20
2018-12-31T05:21:28.928Z,18.80
2018-12-31T05:23:57.505Z,18.00
2018-12-31T05:26:26.123Z,18.30
2018-12-31T05:28:54.695Z,18.70
2018-12-31T05:31:23.254Z,19.40
2018-12-31T05:33:51.869Z,18.90
2018-12-31T05:36:20.495Z,19.30
2018-12-31T05:38:49.066Z,19.70
2018-12-31T05:41:17.922Z,19.10
2018-12-31T05:43:46.460Z,19.50
2018-12-31T05:46:15.028Z,20.10
2018-12-31T05:48:43.634Z,20.90
2018-12-31T05:51:12.259Z,21.20
2018-12-31T05:53:40.833Z,21.60
2018-12-31T05:56:09.792Z,21.90
2018-12-31T05:58:38.364Z,21.60
2018-12-31T06:01:06.943Z,20.00
2018-12-31T06:03:35.550Z,20.80
2018-12-31T06:06:04.123Z,20.70
2018-12-31T06:08:32.760Z,19.20
2018-12-31T06:11:02.399Z,19.30
2018-12-31T06:13:31.195Z,19.50
2018-12-31T06:15:59.831Z,19.00
2018-12-31T06:18:28.500Z,18.70
2018-12-31T06:20:57.236Z,18.60
2018-12-31T06:23:25.797Z,19.10
2018-12-31T06:25:54.343Z,19.10
2018-12-31T06:28:22.980Z,19.90
2018-12-31T06:30:51.617Z,20.00
2018-12-31T06:33:20.302Z,20.10
2018-12-31T06:35:48.866Z,20.80
2018-12-31T06:38:17.506Z,20.00
2018-12-31T06:40:46.182Z,20.10
2018-12-31T06:43:14.755Z,20.20
2018-12-31T06:45:43.396Z,19.80
2018-12-31T06:48:12.079Z,19.40
2018-12-31T06:50:40.642Z,18.60
2018-12-31T06:53:09.215Z,18.10
2018-12-31T06:55:37.827Z,18.90
2018-12-31T06:58:06.470Z,18.80
2018-12-31T07:00:35.103Z,18.90
2018-12-31T07:03:03.713Z,19.40
2018-12-31T07:05:32.343Z,19.60
2018-12-31T07:08:00.991Z,19.20
2018-12-31T07:10:30.292Z,19.60
2018-12-31T07:12:58.933Z,19.20
2018-12-31T07:15:27.515Z,19.30
2018-12-31T07:17:56.134Z,18.20
2018-12-31T07:20:24.768Z,17.60
2018-12-31T07:22:53.334Z,16.60
2018-12-31T07:25:22.027Z,16.90
2018-12-31T07:30:18.787Z,17.40
2018-12-31T07:32:47.812Z,17.10
2018-12-31T07:35:16.379Z,16.10
2018-12-31T07:37:44.952Z,17.80
2018-12-31T07:40:13.489Z,17.00
2018-12-31T07:42:42.057Z,17.70
2018-12-31T07:45:10.643Z,18.10
2018-12-31T07:47:39.155Z,18.20
2018-12-31T07:50:07.639Z,18.10
2018-12-31T07:52:36.209Z,18.90
2018-12-31T07:55:05.185Z,20.50
2018-12-31T07:57:33.748Z,21.30
2018-12-31T08:00:02.320Z,21.20
2018-12-31T08:02:30.928Z,21.60
2018-12-31T08:04:59.491Z,22.30
2018-12-31T08:07:28.062Z,21.80
2018-12-31T08:09:56.739Z,21.50
2018-12-31T08:12:25.311Z,21.50
2018-12-31T08:14:53.874Z,20.60
2018-12-31T08:17:22.579Z,20.90
2018-12-31T08:19:51.140Z,20.60
2018-12-31T08:22:19.710Z,20.60
2018-12-31T08:24:48.296Z,20.80
2018-12-31T08:27:16.940Z,21.10
2018-12-31T08:29:45.578Z,21.00
2018-12-31T08:32:14.184Z,21.10
2018-12-31T08:34:42.752Z,22.20
2018-12-31T08:37:11.699Z,23.00
2018-12-31T08:39:40.374Z,22.00
2018-12-31T08:42:09.035Z,22.10
2018-12-31T08:44:37.664Z,22.00
2018-12-31T08:47:06.834Z,22.00
2018-12-31T08:49:35.366Z,21.90
2018-12-31T08:52:03.991Z,22.40
2018-12-31T08:54:32.695Z,21.60
2018-12-31T08:57:01.334Z,21.60
2018-12-31T08:59:29.914Z,22.50
2018-12-31T09:01:58.580Z,23.10
2018-12-31T09:04:27.232Z,23.20
2018-12-31T09:06:55.868Z,22.90
2018-12-31T09:09:24.592Z,23.50
2018-12-31T09:11:53.167Z,23.60
2018-12-31T09:14:21.791Z,23.30
2018-12-31T09:16:50.476Z,23.60
2018-12-31T09:19:19.046Z,23.60
2018-12-31T09:21:47.619Z,24.20
2018-12-31T09:24:16.222Z,23.60
2018-12-31T09:26:44.861Z,23.00
2018-12-31T09:29:13.494Z,22.20
2018-12-31T09:31:42.193Z,22.50
2018-12-31T09:34:10.746Z,23.00
2018-12-31T09:36:39.378Z,22.90
2018-12-31T09:39:08.051Z,22.90
2018-12-31T09:41:36.622Z,23.30
2018-12-31T09:44:05.732Z,24.00
2018-12-31T09:46:34.319Z,24.10
2018-12-31T09:49:02.892Z,24.00
2018-12-31T09:51:31.447Z,24.00
2018-12-31T09:53:59.976Z,24.10
2018-12-31T09:56:28.605Z,23.90
2018-12-31T09:58:57.095Z,23.30
2018-12-31T10:01:25.692Z,22.90
2018-12-31T10:03:54.322Z,22.50
2018-12-31T10:06:22.949Z,22.70
2018-12-31T10:08:51.493Z,23.30
2018-12-31T10:11:20.052Z,24.20
2018-12-31T10:13:49.115Z,24.30
2018-12-31T10:16:17.714Z,24.00
2018-12-31T10:18:46.344Z,22.90
2018-12-31T10:21:16.106Z,23.20
2018-12-31T10:23:44.967Z,23.00
2018-12-31T10:26:13.611Z,23.30
2018-12-31T10:28:42.173Z,23.00
2018-12-31T10:31:10.860Z,21.80
2018-12-31T10:33:39.486Z,22.50
2018-12-31T10:36:07.974Z,22.60
2018-12-31T10:38:36.969Z,21.00
2018-12-31T10:41:05.595Z,21.90
2018-12-31T10:43:34.162Z,22.50
2018-12-31T10:46:02.756Z,22.10
2018-12-31T10:48:31.321Z,22.70
2018-12-31T10:50:59.957Z,22.30
2018-12-31T10:53:28.631Z,21.80
2018-12-31T10:55:57.281Z,22.10
2018-12-31T10:58:25.841Z,22.50
2018-12-31T11:00:54.530Z,22.50
2018-12-31T11:03:23.157Z,21.90
2018-12-31T11:05:51.715Z,21.60
2018-12-31T11:08:20.323Z,21.70
2018-12-31T11:10:48.896Z,21.60
2018-12-31T11:13:17.530Z,21.80
2018-12-31T11:15:46.210Z,22.50
2018-12-31T11:18:15.253Z,22.30
2018-12-31T11:20:43.805Z,22.90
2018-12-31T11:23:12.344Z,23.30
2018-12-31T11:25:40.906Z,22.20
2018-12-31T11:28:09.472Z,21.80
2018-12-31T11:30:38.202Z,20.90
2018-12-31T11:33:06.758Z,20.80
2018-12-31T11:35:35.331Z,20.70
2018-12-31T11:38:03.917Z,20.50
2018-12-31T11:40:32.479Z,21.50
2018-12-31T11:43:01.046Z,22.20
2018-12-31T11:45:29.662Z,22.40
2018-12-31T11:47:58.148Z,21.50
2018-12-31T11:50:26.775Z,21.00
2018-12-31T11:52:55.375Z,21.70
2018-12-31T11:55:23.935Z,21.30
2018-12-31T11:57:52.424Z,21.50
2018-12-31T12:00:21.045Z,20.70
2018-12-31T12:02:49.615Z,20.40
2018-12-31T12:05:18.173Z,20.40
2018-12-31T12:07:46.771Z,20.80
2018-12-31T12:10:15.341Z,21.20
2018-12-31T12:12:43.962Z,21.60
2018-12-31T12:15:12.571Z,21.80
2018-12-31T12:17:41.060Z,22.60
2018-12-31T12:20:09.633Z,22.40
2018-12-31T12:22:38.225Z,21.90
2018-12-31T12:25:06.867Z,21.30
2018-12-31T12:27:35.523Z,21.70
2018-12-31T12:30:07.163Z,21.20
2018-12-31T12:32:35.626Z,21.40
2018-12-31T12:35:04.572Z,21.00
2018-12-31T12:37:33.172Z,21.70
2018-12-31T12:40:01.815Z,21.70
2018-12-31T12:42:30.335Z,22.00
2018-12-31T12:44:58.939Z,22.90
2018-12-31T12:47:27.490Z,23.60
2018-12-31T12:49:56.056Z,24.00
2018-12-31T12:52:24.631Z,24.10
2018-12-31T12:54:53.296Z,24.70
2018-12-31T12:57:21.867Z,25.10
2018-12-31T12:59:50.471Z,24.60
2018-12-31T13:02:18.962Z,24.90
2018-12-31T13:04:47.454Z,24.60
2018-12-31T13:07:16.063Z,24.70
2018-12-31T13:09:44.624Z,25.00
2018-12-31T13:12:13.194Z,25.30
2018-12-31T13:14:41.810Z,25.00
2018-12-31T13:17:10.454Z,25.20
2018-12-31T13:19:39.013Z,24.10
2018-12-31T13:22:07.692Z,24.70
2018-12-31T13:24:36.255Z,24.70
2018-12-31T13:27:04.821Z,24.70
2018-12-31T13:29:33.509Z,24.70
2018-12-31T13:32:02.143Z,24.90
2018-12-31T13:34:30.718Z,24.70
2018-12-31T13:36:59.695Z,25.10
2018-12-31T13:39:28.263Z,24.40
2018-12-31T13:41:56.907Z,24.70
2018-12-31T13:44:25.584Z,25.00
2018-12-31T13:46:54.156Z,24.90
2018-12-31T13:49:23.123Z,24.90
2018-12-31T13:51:51.784Z,24.80
2018-12-31T13:54:20.315Z,25.10
2018-12-31T13:56:48.884Z,25.10
2018-12-31T13:59:17.558Z,25.40
2018-12-31T14:01:46.571Z,24.70
2018-12-31T14:04:15.224Z,24.50
2018-12-31T14:06:44.960Z,24.70
2018-12-31T14:09:13.713Z,24.70
2018-12-31T14:11:42.344Z,24.50
2018-12-31T14:14:11.336Z,23.90
2018-12-31T14:16:40.469Z,23.90
2018-12-31T14:19:09.123Z,23.90
2018-12-31T14:21:37.750Z,24.30
2018-12-31T14:24:06.389Z,24.30
2018-12-31T14:26:35.428Z,24.10
2018-12-31T14:29:04.100Z,23.20
2018-12-31T14:31:32.736Z,23.10
2018-12-31T14:34:01.414Z,23.60
2018-12-31T14:36:30.091Z,23.50
2018-12-31T14:38:59.050Z,23.50
2018-12-31T14:41:27.688Z,23.50
2018-12-31T14:43:56.359Z,23.00
2018-12-31T14:46:24.999Z,22.70
2018-12-31T14:48:53.629Z,22.00
2018-12-31T14:51:22.988Z,22.20
2018-12-31T14:53:51.620Z,21.70
2018-12-31T14:56:20.334Z,20.90
2018-12-31T14:58:49.028Z,20.60
2018-12-31T15:01:17.663Z,21.00
2018-12-31T15:03:46.290Z,21.70
2018-12-31T15:06:14.988Z,22.60
2018-12-31T15:08:43.611Z,23.10
2018-12-31T15:11:12.250Z,23.30
2018-12-31T15:13:40.852Z,24.30
2018-12-31T15:16:09.494Z,24.00
2018-12-31T15:18:38.134Z,24.20
2018-12-31T15:21:06.818Z,24.50
2018-12-31T15:23:35.472Z,24.50
2018-12-31T15:26:04.103Z,24.70
2018-12-31T15:28:32.786Z,24.90
2018-12-31T15:31:01.422Z,25.20
2018-12-31T15:33:30.065Z,24.90
2018-12-31T15:35:58.734Z,24.90
2018-12-31T15:38:27.369Z,25.10
2018-12-31T15:40:56.004Z,25.00
2018-12-31T15:43:24.699Z,25.20
2018-12-31T15:45:53.380Z,25.00
2018-12-31T15:48:21.998Z,24.90
2018-12-31T15:50:51.036Z,25.00
2018-12-31T15:53:19.681Z,25.10
2018-12-31T15:55:48.526Z,24.90
2018-12-31T15:58:17.231Z,24.90
2018-12-31T16:00:45.782Z,24.90
2018-12-31T16:03:14.428Z,25.00
2018-12-31T16:05:43.039Z,24.90
2018-12-31T16:08:12.100Z,25.10
2018-12-31T16:10:40.657Z,25.60
2018-12-31T16:13:09.482Z,25.80
2018-12-31T16:15:38.109Z,26.00
2018-12-31T16:18:06.747Z,26.00
2018-12-31T16:20:35.720Z,25.20
2018-12-31T16:23:04.673Z,24.90
2018-12-31T16:25:33.312Z,25.10
2018-12-31T16:28:01.983Z,25.80
2018-12-31T16:30:30.619Z,25.40
2018-12-31T16:32:59.566Z,24.70
2018-12-31T16:35:28.178Z,25.50
2018-12-31T16:37:56.819Z,26.10
2018-12-31T16:40:25.448Z,26.40
2018-12-31T16:42:54.123Z,25.80
2018-12-31T16:45:22.690Z,26.10
2018-12-31T16:47:51.191Z,25.60
2018-12-31T16:50:19.903Z,25.00
2018-12-31T16:52:48.544Z,25.40
2018-12-31T16:55:17.111Z,25.70
2018-12-31T16:57:45.735Z,25.80
2018-12-31T17:00:14.301Z,26.10
2018-12-31T17:02:42.941Z,26.20
2018-12-31T17:05:11.579Z,26.70
2018-12-31T17:07:40.206Z,26.50
2018-12-31T17:10:09.840Z,26.60
2018-12-31T17:12:38.968Z,26.90
2018-12-31T17:15:07.541Z,27.00
2018-12-31T17:17:36.183Z,27.00
2018-12-31T17:20:07.582Z,26.90
2018-12-31T17:22:36.081Z,26.80
2018-12-31T17:25:05.087Z,26.80
2018-12-31T17:27:34.045Z,26.70
2018-12-31T17:30:02.594Z,26.70
2018-12-31T17:32:31.162Z,26.70
2018-12-31T17:34:59.712Z,26.60
2018-12-31T17:37:28.217Z,26.60
2018-12-31T17:39:56.863Z,26.60
2018-12-31T17:42:25.541Z,26.60
2018-12-31T17:44:54.170Z,26.60
2018-12-31T17:47:22.755Z,26.50
2018-12-31T17:49:52.207Z,26.30
2018-12-31T17:52:20.837Z,26.10
2018-12-31T17:54:49.349Z,26.20
2018-12-31T17:57:18.045Z,25.60
2018-12-31T17:59:46.539Z,26.20
2018-12-31T18:02:15.193Z,26.10
2018-12-31T18:04:43.893Z,26.30
2018-12-31T18:07:12.452Z,26.30
2018-12-31T18:09:41.026Z,26.50
2018-12-31T18:12:09.722Z,26.20
2018-12-31T18:14:38.365Z,26.50
2018-12-31T18:17:07.174Z,26.70
2018-12-31T18:28:06.529Z,22.30
2018-12-31T18:30:35.578Z,21.80
2018-12-31T18:33:04.149Z,21.20
2018-12-31T18:38:01.112Z,22.30
2018-12-31T18:42:58.022Z,22.60
2018-12-31T18:45:27.081Z,23.50
2018-12-31T18:47:55.651Z,22.90
2018-12-31T18:50:25.088Z,22.50
2018-12-31T18:52:53.629Z,22.50
2018-12-31T18:55:22.222Z,22.90
2018-12-31T18:57:51.095Z,23.80
2018-12-31T19:00:19.707Z,24.50
2018-12-31T19:02:48.229Z,24.50
2018-12-31T19:05:16.889Z,24.90
2018-12-31T19:07:45.489Z,24.50
2018-12-31T19:10:14.531Z,24.70
2018-12-31T19:12:43.116Z,25.10
2018-12-31T19:15:11.647Z,25.30
2018-12-31T19:17:40.204Z,25.30
2018-12-31T19:20:08.778Z,25.40
2018-12-31T19:22:37.413Z,24.80
2018-12-31T19:25:05.919Z,24.50
2018-12-31T19:27:34.562Z,25.10
2018-12-31T19:30:03.162Z,25.20
2018-12-31T19:32:31.797Z,24.40
2018-12-31T19:35:00.371Z,24.90
2018-12-31T19:37:29.962Z,25.00
2018-12-31T19:39:58.588Z,25.20
2018-12-31T19:42:27.162Z,25.50
2018-12-31T19:44:55.834Z,25.10
2018-12-31T19:47:24.413Z,24.50
2018-12-31T19:49:53.718Z,24.70
2018-12-31T19:52:23.235Z,24.80
2018-12-31T19:54:52.285Z,25.10
2018-12-31T19:57:20.793Z,25.30
2018-12-31T19:59:49.419Z,25.30
2018-12-31T20:02:18.384Z,25.40
2018-12-31T20:04:46.950Z,25.40
2018-12-31T20:07:15.564Z,25.20
2018-12-31T20:09:44.127Z,25.30
2018-12-31T20:12:12.708Z,25.30
2018-12-31T20:14:41.741Z,25.20
2018-12-31T20:17:10.298Z,25.30
2018-12-31T20:19:38.936Z,24.90
2018-12-31T20:22:07.622Z,24.60
2018-12-31T20:24:36.191Z,24.70
2018-12-31T20:27:04.675Z,24.70
2018-12-31T20:29:33.767Z,24.50
2018-12-31T20:32:02.413Z,24.50
2018-12-31T20:34:30.988Z,24.60
2018-12-31T20:36:59.663Z,24.60
2018-12-31T20:39:28.192Z,24.10
2018-12-31T20:41:56.779Z,24.00
2018-12-31T20:44:25.506Z,24.30
2018-12-31T20:46:54.153Z,24.60
2018-12-31T20:49:22.734Z,24.50
2018-12-31T20:51:51.378Z,24.80
2018-12-31T20:54:19.945Z,25.00
2018-12-31T20:56:48.534Z,25.10
2018-12-31T20:59:17.751Z,24.90
2018-12-31T21:01:46.331Z,24.20
2018-12-31T21:04:14.965Z,24.50
2018-12-31T21:06:43.649Z,25.00
2018-12-31T21:09:12.298Z,25.30
2018-12-31T21:11:41.134Z,25.40
2018-12-31T21:14:09.834Z,25.40
2018-12-31T21:16:38.917Z,25.30
2018-12-31T21:19:07.479Z,25.40
2018-12-31T21:21:36.163Z,25.20
2018-12-31T21:24:05.103Z,25.40
2018-12-31T21:26:34.029Z,25.30
2018-12-31T21:29:02.723Z,25.00
2018-12-31T21:31:31.362Z,24.90
2018-12-31T21:34:00.016Z,24.90
2018-12-31T21:36:28.988Z,24.40
2018-12-31T21:38:57.657Z,23.70
2018-12-31T21:41:26.271Z,24.20
2018-12-31T21:43:54.891Z,24.30
2018-12-31T21:46:23.511Z,24.50
2018-12-31T21:48:52.168Z,24.30
2018-12-31T21:51:21.163Z,24.90
2018-12-31T21:53:50.672Z,25.20
2018-12-31T21:56:19.754Z,25.20
2018-12-31T21:58:48.436Z,24.80
2018-12-31T22:01:17.062Z,24.80
2018-12-31T22:03:46.127Z,24.60
2018-12-31T22:06:14.825Z,25.00
2018-12-31T22:08:43.476Z,24.60
2018-12-31T22:11:12.098Z,24.30
2018-12-31T22:13:40.777Z,24.50
2018-12-31T22:16:09.422Z,24.20
2018-12-31T22:18:38.043Z,24.20
2018-12-31T22:21:06.733Z,24.50
2018-12-31T22:23:35.289Z,24.70
2018-12-31T22:26:03.956Z,23.90
2018-12-31T22:28:32.642Z,23.90
2018-12-31T22:31:01.522Z,24.40
2018-12-31T22:33:30.177Z,24.70
2018-12-31T22:35:59.161Z,25.20
2018-12-31T22:38:27.839Z,25.20
2018-12-31T22:40:56.450Z,25.40
2018-12-31T22:43:25.423Z,25.10
2018-12-31T22:45:54.076Z,25.20
2018-12-31T22:48:22.635Z,25.10
2018-12-31T22:50:51.321Z,25.20
2018-12-31T22:53:19.885Z,25.10
2018-12-31T22:55:49.687Z,24.80
2018-12-31T22:58:18.372Z,24.80
2018-12-31T23:00:47.004Z,24.40
2018-12-31T23:03:15.652Z,24.50
2018-12-31T23:05:44.325Z,24.50
2018-12-31T23:08:12.971Z,24.40
2018-12-31T23:10:41.626Z,24.60
2018-12-31T23:13:10.305Z,24.30
2018-12-31T23:15:38.954Z,24.50
2018-12-31T23:18:07.528Z,25.00
2018-12-31T23:20:36.224Z,25.40
2018-12-31T23:23:04.784Z,25.50
2018-12-31T23:25:33.356Z,25.40
2018-12-31T23:28:02.031Z,25.20
2018-12-31T23:30:30.628Z,25.20
2018-12-31T23:32:59.274Z,25.30
2018-12-31T23:35:30.093Z,25.60
2018-12-31T23:37:58.553Z,25.30
2018-12-31T23:40:27.189Z,25.20
2018-12-31T23:42:55.982Z,24.90
2018-12-31T23:45:24.645Z,24.50
2018-12-31T23:50:21.985Z,23.70
2018-12-31T23:52:50.582Z,22.30
2018-12-31T23:57:48.324Z,21.20
